Airfield :
LOGIN :

Register | Disclaimer

   EN    FR    IT 

 










Legend :    VFR   Marginal VFR   IFR   Intensive IFR   Very Intensive IFR
Visi :
Ceiling :
>= 8 km
>= 3000ft
5 to 8 km
1000 to 3000 ft
1500m to 5 km
500 to 1000 ft
800 to 1500m
200 to 500 ft
< 800m
< 200 ft
Symbols :   Thunderstorms  Fog  Heavy snow  Heavy precipitations  Wind > 20 kt
SIGMETs :     Misc.  Thunderstorms  Icing  Turbulence  Mountain Waves  Volcanic Ashes







- Airport Elevation : 157 ft
- IATA code : SXF


EDDB - Berlin Schönefeld

CURRENT METAR :
  • 261850Z 24008KT CAVOK 19/09 Q1009 NOSIG

EXPIRED METARs :
  • 261820Z 22007KT CAVOK 20/09 Q1009 NOSIG
  • 261750Z 24008KT CAVOK 20/09 Q1009 NOSIG
  • 261720Z 26010KT CAVOK 21/09 Q1009 NOSIG
  • 261650Z 28009KT CAVOK 21/09 Q1009 NOSIG
  • 261620Z 29012KT CAVOK 21/08 Q1010 NOSIG

TAF TAF EDDB
Valid from the 26 at 18:00 until the 27 at 18:00 UTC


261700Z 2618/2718 22006KT CAVOK
BECMG 2704/2707 22011KT
PROB30
TEMPO 2707/2709 BKN012
PROB30
TEMPO 2709/2715 24015G25KT
BECMG 2715/2718 21005KT
No reported NOTAMs for that airfield.



MET'MAP, your aeronautical weather chart ! - Copyright ORBIFLY December 2007 - Disclaimer

ORBIFLY MET'MAP TEAM :

Programming & Development : Alexandra Zaïnal
Concept & Development : Baudouin d'Aumeries
Co-Development & Prog : Marc-Olivier Méhu
Technical & hardware support : Manuel Goepfert

Contact : metmap@orbifly.com




SOURCES & CREDITS :

   NOAA